Time;durP1;ratioP1;P1;durP2;ratioP2;P2;SDS_P1;SDS_P2;PMS_P1;PMS_P2;Temp;Humidity;BMP_temperature;BMP_pressure;BME280_temperature;BME280_humidity;BME280_pressure;Samples;Min_cycle;Max_cycle;Signal;HPM_P1;HPM_P2
2024/04/03 00:00:55;;;;;;;0.10;0.10;;;;;;;12.61;70.36;100731.81;5077093;28;20412;-79
2024/04/03 00:03:21;;;;;;;0.10;0.10;;;;;;;12.60;71.03;100734.53;5074224;28;20107;-79
2024/04/03 00:05:48;;;;;;;0.10;0.10;;;;;;;12.61;70.98;100737.13;5082440;28;20028;-77
2024/04/03 00:08:14;;;;;;;0.10;0.10;;;;;;;12.59;72.20;100727.47;5073219;28;20021;-80
2024/04/03 00:10:40;;;;;;;0.10;0.10;;;;;;;12.62;71.60;100722.94;5080570;28;20514;-80
2024/04/03 00:13:06;;;;;;;0.13;0.13;;;;;;;12.64;71.51;100719.34;5065384;28;20369;-79
2024/04/03 00:15:32;;;;;;;3.65;1.65;;;;;;;12.65;72.03;100721.06;5080832;28;20032;-79
2024/04/03 00:17:58;;;;;;;0.10;0.10;;;;;;;12.65;72.30;100713.09;5081586;28;20040;-78
2024/04/03 00:20:25;;;;;;;0.10;0.10;;;;;;;12.65;72.16;100716.66;5080470;28;20028;-79
2024/04/03 00:22:51;;;;;;;0.10;0.10;;;;;;;12.65;72.04;100710.44;5080828;28;20048;-80
2024/04/03 00:25:18;;;;;;;0.10;0.10;;;;;;;12.66;72.42;100704.22;5077952;28;20029;-79
2024/04/03 00:27:45;;;;;;;0.10;0.10;;;;;;;12.69;71.74;100706.78;5081189;28;20084;-78
2024/04/03 00:30:11;;;;;;;0.10;0.10;;;;;;;12.70;72.14;100703.22;5084636;28;20032;-81
2024/04/03 00:32:37;;;;;;;0.00;0.00;;;;;;;12.70;72.35;100704.06;5078390;28;20614;-78
2024/04/03 00:35:04;;;;;;;0.10;0.10;;;;;;;12.74;72.21;100697.75;5076637;28;20040;-79
2024/04/03 00:37:30;;;;;;;0.17;0.17;;;;;;;12.76;72.41;100692.38;5075332;28;20047;-80
2024/04/03 00:39:57;;;;;;;0.40;0.40;;;;;;;12.79;71.97;100689.63;5074214;28;20089;-80
2024/04/03 00:42:25;;;;;;;0.45;0.45;;;;;;;12.79;72.71;100686.97;5072517;28;20032;-80
2024/04/03 00:44:51;;;;;;;1.10;1.10;;;;;;;12.80;72.53;100683.41;5075030;28;20047;-79
2024/04/03 00:47:18;;;;;;;0.10;0.10;;;;;;;12.81;72.30;100684.25;5077000;28;20192;-78
2024/04/03 00:49:45;;;;;;;0.10;0.10;;;;;;;12.81;72.64;100677.16;5070263;28;20054;-78
2024/04/03 00:52:13;;;;;;;0.70;0.70;;;;;;;12.80;73.08;100670.09;5074931;28;20571;-79
2024/04/03 00:54:42;;;;;;;0.20;0.20;;;;;;;12.79;72.98;100671.00;5079020;28;20048;-79
2024/04/03 00:57:09;;;;;;;0.10;0.10;;;;;;;12.79;73.27;100665.69;5075115;28;20032;-79
2024/04/03 00:59:35;;;;;;;0.10;0.10;;;;;;;12.81;72.82;100673.63;5075632;28;20387;-79
2024/04/03 01:02:02;;;;;;;0.68;0.68;;;;;;;12.78;73.32;100669.28;5076347;28;20751;-79
2024/04/03 01:04:29;;;;;;;0.10;0.10;;;;;;;12.76;73.25;100663.13;5070772;28;20122;-79
2024/04/03 01:06:55;;;;;;;1.95;0.57;;;;;;;12.71;73.88;100662.41;5073760;28;20040;-79
2024/04/03 01:09:21;;;;;;;0.40;0.40;;;;;;;12.70;74.63;100655.38;5073478;28;20028;-79
2024/04/03 01:11:49;;;;;;;0.08;0.08;;;;;;;12.71;74.35;100647.34;5076163;28;20039;-79
2024/04/03 01:14:16;;;;;;;0.10;0.10;;;;;;;12.72;74.33;100648.19;5072710;28;20097;-80
2024/04/03 01:16:43;;;;;;;0.52;0.52;;;;;;;12.69;75.01;100643.84;5072472;28;20036;-78
2024/04/03 01:19:10;;;;;;;0.20;0.20;;;;;;;12.73;74.27;100639.31;5071648;28;20032;-78
2024/04/03 01:21:36;;;;;;;0.10;0.10;;;;;;;12.70;74.76;100642.09;5074176;28;20060;-79
2024/04/03 01:24:03;;;;;;;0.10;0.10;;;;;;;12.68;74.82;100633.28;5072676;28;20048;-78
2024/04/03 01:26:30;;;;;;;0.10;0.10;;;;;;;12.69;75.40;100627.06;5074207;28;20087;-79
2024/04/03 01:28:57;;;;;;;0.10;0.10;;;;;;;12.71;75.46;100633.16;5068484;28;20020;-78
2024/04/03 01:31:23;;;;;;;0.10;0.10;;;;;;;12.77;75.11;100625.00;5076368;28;20062;-77
2024/04/03 01:33:49;;;;;;;0.10;0.10;;;;;;;12.78;75.24;100621.41;5074843;28;20032;-75
2024/04/03 01:36:16;;;;;;;0.90;0.52;;;;;;;12.80;75.24;100614.28;5084115;28;20396;-78
2024/04/03 01:38:43;;;;;;;0.10;0.10;;;;;;;12.78;75.85;100616.09;5076954;28;20032;-78
2024/04/03 01:41:11;;;;;;;0.15;0.15;;;;;;;12.76;75.79;100612.63;5073863;28;20032;-80
2024/04/03 01:43:37;;;;;;;1.65;1.55;;;;;;;12.79;75.33;100602.75;5080109;28;20115;-80
2024/04/03 01:46:03;;;;;;;0.10;0.10;;;;;;;12.74;76.30;100603.84;5084002;28;20042;-77
2024/04/03 01:48:29;;;;;;;0.10;0.10;;;;;;;12.79;75.76;100607.22;5077675;28;20028;-78
2024/04/03 01:50:56;;;;;;;0.10;0.10;;;;;;;12.70;76.43;100597.75;5083237;28;20024;-79
2024/04/03 01:53:22;;;;;;;0.32;0.32;;;;;;;12.76;75.72;100601.97;5078769;28;20035;-78
2024/04/03 01:55:57;;;;;;;0.10;0.10;;;;;;;12.77;76.33;100587.78;5074447;28;21733;-79
2024/04/03 01:58:25;;;;;;;2.03;1.85;;;;;;;12.68;76.37;100590.75;5077551;28;20368;-77
2024/04/03 02:00:52;;;;;;;0.10;0.10;;;;;;;12.71;76.03;100586.19;5058972;28;20029;-78
2024/04/03 02:03:20;;;;;;;0.10;0.10;;;;;;;12.76;76.24;100586.03;5078583;28;20032;-79
2024/04/03 02:05:47;;;;;;;0.10;0.10;;;;;;;12.62;76.25;100586.50;5069764;28;20066;-78
2024/04/03 02:08:14;;;;;;;0.10;0.10;;;;;;;12.64;76.38;100575.81;5077115;28;20026;-78
2024/04/03 02:10:42;;;;;;;0.40;0.40;;;;;;;12.65;76.14;100573.13;5077144;28;20020;-78
2024/04/03 02:13:08;;;;;;;0.10;0.10;;;;;;;12.72;75.91;100576.44;5077214;28;20039;-80
2024/04/03 02:15:35;;;;;;;0.15;0.15;;;;;;;12.68;76.10;100570.34;5088295;28;20027;-79
2024/04/03 02:18:01;;;;;;;0.10;0.10;;;;;;;12.65;76.40;100564.25;5081269;28;20066;-77
2024/04/03 02:20:27;;;;;;;0.10;0.10;;;;;;;12.71;76.09;100566.72;5087744;28;20503;-78
2024/04/03 02:22:53;;;;;;;1.50;1.45;;;;;;;12.75;76.39;100563.06;5080492;28;20127;-80
2024/04/03 02:25:20;;;;;;;0.10;0.10;;;;;;;12.72;76.30;100549.84;5083203;28;20110;-80
2024/04/03 02:27:47;;;;;;;0.82;0.82;;;;;;;12.61;76.53;100547.53;5080986;28;20555;-80
2024/04/03 02:30:13;;;;;;;0.10;0.10;;;;;;;12.71;76.32;100530.38;5073793;28;20059;-81
2024/04/03 02:32:39;;;;;;;0.10;0.10;;;;;;;12.74;75.70;100545.34;5075238;28;20051;-80
2024/04/03 02:35:05;;;;;;;0.55;0.38;;;;;;;12.68;76.27;100534.94;5079496;28;20025;-80
2024/04/03 02:37:32;;;;;;;0.10;0.10;;;;;;;12.69;76.06;100536.66;5074944;28;20408;-81
2024/04/03 02:40:00;;;;;;;0.10;0.10;;;;;;;12.64;75.95;100522.66;5075271;28;20418;-81
2024/04/03 02:42:27;;;;;;;0.10;0.10;;;;;;;12.58;76.57;100526.38;5072532;28;20495;-80
2024/04/03 02:44:53;;;;;;;0.10;0.10;;;;;;;12.58;75.95;100518.41;5071620;28;20033;-79
2024/04/03 02:47:19;;;;;;;0.17;0.17;;;;;;;12.47;76.27;100524.09;5076448;28;20104;-78
2024/04/03 02:49:46;;;;;;;0.20;0.20;;;;;;;12.50;76.48;100510.72;5078189;28;20032;-79
2024/04/03 02:52:12;;;;;;;0.10;0.10;;;;;;;12.54;75.51;100515.00;5073404;28;20040;-80
2024/04/03 02:54:38;;;;;;;0.10;0.10;;;;;;;12.48;75.68;100511.69;5077284;28;20096;-80
2024/04/03 02:57:05;;;;;;;0.10;0.10;;;;;;;12.49;75.70;100505.44;5080406;28;20059;-78
2024/04/03 02:59:32;;;;;;;0.10;0.10;;;;;;;12.39;75.94;100503.09;5077106;28;20029;-78
2024/04/03 03:01:58;;;;;;;0.10;0.10;;;;;;;12.47;75.83;100500.16;5076439;28;20036;-79
2024/04/03 03:04:25;;;;;;;0.50;0.50;;;;;;;12.49;75.97;100513.44;5077073;28;20407;-79
2024/04/03 03:06:52;;;;;;;0.10;0.10;;;;;;;12.45;75.32;100505.53;5083214;28;20111;-78
2024/04/03 03:09:21;;;;;;;0.10;0.10;;;;;;;12.48;75.74;100507.22;5072281;28;20036;-79
2024/04/03 03:11:48;;;;;;;0.10;0.10;;;;;;;12.42;75.55;100508.31;5074068;28;20097;-80
2024/04/03 03:14:14;;;;;;;0.30;0.30;;;;;;;12.47;75.01;100494.84;5070320;28;20032;-78
2024/04/03 03:16:40;;;;;;;0.93;0.93;;;;;;;12.46;75.34;100501.09;5075577;28;20153;-80
2024/04/03 03:19:07;;;;;;;0.10;0.10;;;;;;;12.43;74.83;100490.56;5071935;28;20056;-81
2024/04/03 03:21:33;;;;;;;0.10;0.10;;;;;;;12.36;75.13;100491.69;5080944;28;20507;-79
2024/04/03 03:23:59;;;;;;;0.10;0.10;;;;;;;12.35;74.48;100484.63;5081746;28;20062;-78
2024/04/03 03:26:25;;;;;;;8.40;1.20;;;;;;;12.37;74.26;100480.16;5074935;28;20115;-80
2024/04/03 03:28:51;;;;;;;0.10;0.10;;;;;;;12.33;74.00;100484.69;5065235;28;20437;-78
2024/04/03 03:31:19;;;;;;;0.10;0.10;;;;;;;12.35;73.94;100481.97;5063871;28;20036;-80
2024/04/03 03:33:45;;;;;;;0.10;0.10;;;;;;;12.42;74.34;100480.84;5067822;28;20029;-80
2024/04/03 03:36:11;;;;;;;0.10;0.10;;;;;;;12.37;74.47;100472.19;5068872;28;21962;-80
2024/04/03 03:38:37;;;;;;;0.10;0.10;;;;;;;12.42;74.39;100464.91;5069726;28;20045;-80
2024/04/03 03:41:04;;;;;;;0.10;0.10;;;;;;;12.38;73.81;100473.91;5068080;28;20091;-80
2024/04/03 03:43:30;;;;;;;0.10;0.10;;;;;;;12.35;73.48;100474.00;5067953;28;20373;-80
2024/04/03 03:45:56;;;;;;;0.10;0.10;;;;;;;12.35;74.08;100463.38;5080256;28;20119;-79
2024/04/03 03:54:00;;;;;;;0.20;0.20;;;;;;;12.29;74.19;100462.66;5076172;28;20060;-79
2024/04/03 03:56:26;;;;;;;0.10;0.10;;;;;;;12.23;74.47;100454.03;5079470;28;20028;-79
2024/04/03 03:58:52;;;;;;;0.10;0.10;;;;;;;12.28;74.07;100455.59;5074686;28;20498;-78
2024/04/03 04:01:18;;;;;;;0.10;0.10;;;;;;;12.29;74.02;100459.16;5075315;28;20094;-78
2024/04/03 04:03:45;;;;;;;0.10;0.10;;;;;;;12.27;74.06;100451.25;5075489;28;20119;-79
2024/04/03 04:06:11;;;;;;;0.40;0.40;;;;;;;12.29;74.22;100454.69;5081874;28;20036;-79
2024/04/03 04:08:37;;;;;;;0.10;0.10;;;;;;;12.29;74.45;100449.38;5079644;28;20021;-79
2024/04/03 04:11:04;;;;;;;0.10;0.10;;;;;;;12.29;74.18;100444.06;5075570;28;20487;-80
2024/04/03 04:13:31;;;;;;;0.10;0.10;;;;;;;12.28;74.63;100441.47;5071755;28;20094;-80
2024/04/03 04:15:59;;;;;;;2.72;2.22;;;;;;;12.27;74.33;100439.72;5077103;28;20031;-78
2024/04/03 04:18:26;;;;;;;0.10;0.10;;;;;;;12.22;74.31;100439.88;5076415;28;20108;-80
2024/04/03 04:20:55;;;;;;;0.10;0.10;;;;;;;12.24;74.83;100439.84;5077900;28;20071;-78
2024/04/03 04:23:22;;;;;;;0.10;0.10;;;;;;;12.23;74.45;100438.97;5071822;28;20055;-78
2024/04/03 04:26:04;;;;;;;0.10;0.10;;;;;;;12.25;74.97;100429.16;5078665;28;20028;-79
2024/04/03 04:28:31;;;;;;;0.10;0.10;;;;;;;12.18;75.66;100430.28;5071845;28;20381;-79
2024/04/03 04:33:35;;;;;;;0.10;0.10;;;;;;;12.21;75.65;100424.88;5101661;27;1247662;-80
2024/04/03 04:36:02;;;;;;;0.10;0.10;;;;;;;12.21;75.65;100419.56;5128547;28;20053;-81
2024/04/03 04:38:28;;;;;;;0.10;0.10;;;;;;;12.22;75.20;100423.09;5121715;27;20046;-80
2024/04/03 04:43:33;;;;;;;0.10;0.10;;;;;;;12.26;75.88;100419.41;5139338;27;20379;-79
2024/04/03 04:46:03;;;;;;;0.10;0.10;;;;;;;12.30;75.21;100419.25;5123372;27;20110;-80
2024/04/03 04:48:31;;;;;;;0.10;0.10;;;;;;;12.27;75.69;100414.06;5126823;28;20551;-80
2024/04/03 04:50:59;;;;;;;0.10;0.10;;;;;;;12.33;75.39;100420.94;5130410;27;20035;-79
2024/04/03 04:53:26;;;;;;;0.10;0.10;;;;;;;12.32;75.22;100421.84;5104190;28;20521;-80
2024/04/03 04:56:01;;;;;;;0.10;0.10;;;;;;;12.38;75.72;100420.78;5099496;28;20032;-78
2024/04/03 04:58:28;;;;;;;0.10;0.10;;;;;;;12.34;75.50;100413.84;5109788;28;20027;-79
2024/04/03 05:01:04;;;;;;;0.10;0.10;;;;;;;12.43;75.23;100419.69;5104308;28;20047;-80
2024/04/03 05:03:31;;;;;;;0.10;0.10;;;;;;;12.39;75.71;100411.91;5104038;28;20047;-79
2024/04/03 05:05:57;;;;;;;0.10;0.10;;;;;;;12.35;75.32;100412.91;5111633;28;20035;-79
2024/04/03 05:08:24;;;;;;;0.03;0.03;;;;;;;12.35;75.45;100405.81;5108039;28;20499;-79
2024/04/03 05:13:29;;;;;;;0.00;0.00;;;;;;;12.36;75.85;100401.34;5069484;28;20135;-80
2024/04/03 05:15:56;;;;;;;0.10;0.10;;;;;;;12.39;75.86;100402.13;5070224;28;20035;-80
2024/04/03 05:18:22;;;;;;;0.10;0.10;;;;;;;12.35;75.76;100399.63;5069410;28;20488;-81
2024/04/03 05:20:48;;;;;;;0.10;0.10;;;;;;;12.36;75.28;100401.34;5071987;28;20059;-80
2024/04/03 05:23:15;;;;;;;0.10;0.10;;;;;;;12.28;75.62;100386.53;5057757;28;20021;-79
2024/04/03 05:25:41;;;;;;;0.10;0.10;;;;;;;12.35;75.42;100389.00;5065550;28;20456;-81
2024/04/03 05:28:07;;;;;;;0.10;0.10;;;;;;;12.36;75.65;100388.06;5067025;28;20025;-81
2024/04/03 05:30:35;;;;;;;0.10;0.10;;;;;;;12.36;76.03;100386.31;5066354;28;20033;-79
2024/04/03 05:33:01;;;;;;;0.10;0.10;;;;;;;12.39;75.74;100386.19;5061203;28;20377;-81
2024/04/03 05:35:28;;;;;;;0.30;0.30;;;;;;;12.42;75.39;100385.22;5056606;28;20037;-81
2024/04/03 05:37:54;;;;;;;0.10;0.10;;;;;;;12.43;76.36;100376.31;5060051;28;20439;-81
2024/04/03 05:40:20;;;;;;;0.10;0.10;;;;;;;12.45;76.01;100379.81;5066355;28;20029;-80
2024/04/03 05:42:46;;;;;;;0.17;0.17;;;;;;;12.40;75.93;100373.75;5059923;28;20020;-79
2024/04/03 05:45:12;;;;;;;0.10;0.10;;;;;;;12.44;75.70;100378.06;5051985;28;20032;-79
2024/04/03 05:47:39;;;;;;;0.10;0.10;;;;;;;12.39;76.44;100380.88;5059119;28;20029;-78
2024/04/03 05:50:06;;;;;;;0.10;0.10;;;;;;;12.46;76.35;100377.09;5056589;28;20158;-81
2024/04/03 05:52:33;;;;;;;0.13;0.13;;;;;;;12.42;76.26;100374.56;5059902;28;20447;-81
2024/04/03 05:55:00;;;;;;;0.10;0.10;;;;;;;12.44;76.46;100378.91;5060286;28;20583;-80
2024/04/03 05:57:27;;;;;;;0.10;0.10;;;;;;;12.46;76.48;100377.09;5056205;28;20490;-79
2024/04/03 05:59:53;;;;;;;0.10;0.10;;;;;;;12.54;76.15;100379.47;5059146;28;20063;-79
2024/04/03 06:02:20;;;;;;;0.52;0.28;;;;;;;12.57;75.91;100370.50;5053087;28;20393;-80
2024/04/03 06:04:46;;;;;;;0.10;0.10;;;;;;;12.54;76.39;100374.16;5059682;28;20037;-79
2024/04/03 06:07:12;;;;;;;0.10;0.10;;;;;;;12.61;76.47;100374.78;5065936;28;20036;-80
2024/04/03 06:09:41;;;;;;;1.75;0.85;;;;;;;12.61;76.32;100369.47;5071563;28;20104;-81
2024/04/03 06:12:07;;;;;;;0.10;0.10;;;;;;;12.65;76.05;100363.13;5058990;28;20013;-80
2024/04/03 06:14:34;;;;;;;0.10;0.10;;;;;;;12.74;76.46;100359.28;5055944;28;20037;-80
2024/04/03 06:17:00;;;;;;;0.10;0.10;;;;;;;12.73;76.13;100368.16;5061332;28;20162;-80
2024/04/03 06:19:27;;;;;;;0.10;0.10;;;;;;;12.81;76.06;100363.44;5060701;28;20090;-80
2024/04/03 06:21:53;;;;;;;0.10;0.10;;;;;;;12.79;75.87;100358.16;5062605;28;20035;-79
2024/04/03 06:24:19;;;;;;;0.10;0.10;;;;;;;12.86;75.71;100361.47;5045949;28;20459;-77
2024/04/03 06:26:45;;;;;;;0.10;0.10;;;;;;;12.88;76.09;100361.41;5047027;28;20026;-78
2024/04/03 06:29:11;;;;;;;0.10;0.10;;;;;;;12.92;75.96;100363.91;5044771;28;20396;-79
2024/04/03 06:31:37;;;;;;;0.10;0.10;;;;;;;12.98;75.95;100361.94;5043850;28;20439;-77
2024/04/03 06:34:04;;;;;;;0.10;0.10;;;;;;;13.01;76.06;100365.34;5050471;28;20029;-76
2024/04/03 06:36:31;;;;;;;0.20;0.20;;;;;;;12.98;75.96;100357.47;5047369;28;20029;-80
2024/04/03 06:38:57;;;;;;;0.10;0.10;;;;;;;13.04;75.76;100362.56;5053144;28;20112;-80
2024/04/03 06:41:23;;;;;;;0.43;0.43;;;;;;;13.05;75.50;100358.13;5046077;28;20040;-80
2024/04/03 06:43:49;;;;;;;0.10;0.10;;;;;;;13.04;75.87;100351.06;5039726;28;20404;-80
2024/04/03 06:46:16;;;;;;;0.10;0.10;;;;;;;13.05;75.22;100358.13;5047345;28;20091;-80
2024/04/03 06:48:43;;;;;;;0.10;0.10;;;;;;;13.11;75.43;100355.25;5042243;28;20032;-78
2024/04/03 06:51:09;;;;;;;0.10;0.10;;;;;;;13.14;75.20;100349.78;5040022;28;20122;-80
2024/04/03 06:53:36;;;;;;;0.10;0.10;;;;;;;13.18;75.34;100356.72;5038746;28;20033;-81
2024/04/03 06:56:03;;;;;;;0.50;0.50;;;;;;;13.19;74.91;100342.50;5039514;28;20075;-78
2024/04/03 06:58:38;;;;;;;0.10;0.10;;;;;;;13.26;75.41;100340.47;5045028;28;20087;-76
2024/04/03 07:01:05;;;;;;;0.10;0.10;;;;;;;13.23;75.02;100341.47;5041610;28;20036;-78
2024/04/03 07:03:33;;;;;;;0.20;0.20;;;;;;;13.25;74.68;100336.94;5046645;28;20150;-78
2024/04/03 07:06:00;;;;;;;0.45;0.45;;;;;;;13.23;74.75;100340.59;5043124;28;20064;-79
2024/04/03 07:08:26;;;;;;;0.10;0.10;;;;;;;13.30;74.95;100342.06;5041824;28;20040;-78
2024/04/03 07:10:53;;;;;;;0.13;0.13;;;;;;;13.33;74.49;100338.44;5043728;28;20093;-78
2024/04/03 07:13:21;;;;;;;0.10;0.10;;;;;;;13.22;74.51;100337.06;5040851;28;20269;-79
2024/04/03 07:15:48;;;;;;;0.00;0.00;;;;;;;13.27;74.32;100335.09;5043088;28;20055;-78
2024/04/03 07:18:16;;;;;;;0.10;0.10;;;;;;;13.36;74.55;100339.19;5045592;28;20038;-79
2024/04/03 07:20:42;;;;;;;0.32;0.32;;;;;;;13.37;74.32;100348.00;5039147;28;20033;-77
2024/04/03 07:23:09;;;;;;;0.10;0.10;;;;;;;13.36;74.37;100336.50;5047275;28;20060;-79
2024/04/03 07:25:38;;;;;;;0.10;0.10;;;;;;;13.42;74.21;100330.09;5043212;28;20044;-79
2024/04/03 07:28:12;;;;;;;0.10;0.10;;;;;;;13.47;74.33;100335.25;5041969;28;20040;-79
2024/04/03 07:30:40;;;;;;;0.10;0.10;;;;;;;13.40;73.90;100343.47;5040258;28;20520;-79
2024/04/03 07:33:08;;;;;;;0.45;0.45;;;;;;;13.38;73.60;100344.47;5041325;28;20227;-79
2024/04/03 07:35:35;;;;;;;0.52;0.52;;;;;;;13.31;73.52;100342.94;5052339;28;20060;-79
2024/04/03 07:38:02;;;;;;;0.13;0.13;;;;;;;13.40;73.87;100338.16;5054623;28;20028;-79
2024/04/03 07:40:29;;;;;;;0.10;0.10;;;;;;;13.38;73.58;100341.81;5049791;28;20029;-79
2024/04/03 07:42:55;;;;;;;0.20;0.20;;;;;;;13.43;73.58;100343.38;5046567;28;20025;-79
2024/04/03 07:45:21;;;;;;;0.10;0.10;;;;;;;13.48;73.50;100339.66;5048910;28;20063;-78
2024/04/03 07:47:48;;;;;;;0.00;0.00;;;;;;;13.47;73.71;100330.81;5060251;28;20436;-77
2024/04/03 07:50:15;;;;;;;0.10;0.10;;;;;;;13.42;73.78;100332.75;5041285;28;20025;-79
2024/04/03 07:52:42;;;;;;;0.22;0.22;;;;;;;13.44;73.18;100333.56;5041630;28;20021;-79
2024/04/03 07:55:09;;;;;;;0.30;0.30;;;;;;;13.39;73.08;100335.56;5045004;28;20055;-81
2024/04/03 07:57:36;;;;;;;0.10;0.10;;;;;;;13.27;73.04;100331.53;5053633;28;20029;-78
2024/04/03 08:00:05;;;;;;;0.10;0.10;;;;;;;13.34;72.89;100327.72;5061374;28;20402;-80
2024/04/03 08:05:13;;;;;;;0.10;0.10;;;;;;;13.40;73.20;100334.63;5117596;27;20801;-82
2024/04/03 08:07:43;;;;;;;0.10;0.10;;;;;;;13.44;73.41;100333.56;5104788;28;20411;-79
2024/04/03 08:10:11;;;;;;;0.10;0.10;;;;;;;13.46;73.24;100331.72;5103023;28;20106;-80
2024/04/03 08:12:39;;;;;;;0.10;0.10;;;;;;;13.46;73.45;100333.50;5088555;28;20025;-80
2024/04/03 08:15:06;;;;;;;0.10;0.10;;;;;;;13.54;73.18;100332.25;5081874;28;20043;-78
2024/04/03 08:17:32;;;;;;;0.13;0.13;;;;;;;13.56;73.60;100332.22;5081573;28;20085;-79
2024/04/03 08:19:58;;;;;;;0.10;0.10;;;;;;;13.65;73.52;100336.31;5076428;28;20028;-79
2024/04/03 08:22:25;;;;;;;0.10;0.10;;;;;;;13.61;73.33;100334.69;5079071;28;20036;-81
2024/04/03 08:24:52;;;;;;;0.10;0.10;;;;;;;13.72;72.92;100335.97;5079183;28;20090;-82
2024/04/03 08:27:18;;;;;;;0.10;0.10;;;;;;;13.71;72.76;100334.25;5074541;28;20031;-82
2024/04/03 08:29:48;;;;;;;0.10;0.10;;;;;;;13.75;72.88;100333.19;5071243;28;20037;-83
2024/04/03 08:32:16;;;;;;;0.25;0.25;;;;;;;13.76;73.03;100334.06;5075447;28;20454;-83
2024/04/03 08:34:43;;;;;;;0.10;0.10;;;;;;;13.82;72.46;100325.81;5074304;28;20021;-83
2024/04/03 08:37:12;;;;;;;2.05;0.75;;;;;;;13.86;72.52;100319.44;5072805;28;20392;-81
2024/04/03 08:39:38;;;;;;;0.10;0.10;;;;;;;14.00;72.83;100321.50;5071794;28;20044;-81
2024/04/03 08:42:05;;;;;;;0.10;0.10;;;;;;;14.11;72.78;100321.06;5069832;28;20028;-80
2024/04/03 08:44:34;;;;;;;0.20;0.20;;;;;;;14.26;72.68;100329.31;5067872;28;20025;-80
2024/04/03 08:47:02;;;;;;;0.10;0.10;;;;;;;14.26;72.25;100335.50;5070681;28;20021;-80
2024/04/03 08:49:31;;;;;;;0.03;0.03;;;;;;;14.24;71.94;100335.59;5071200;28;20025;-79
2024/04/03 08:54:42;;;;;;;0.85;0.85;;;;;;;14.16;71.06;100337.69;5066100;28;20447;-79
2024/04/03 08:57:09;;;;;;;0.10;0.10;;;;;;;14.18;71.16;100334.97;5057198;28;20028;-80
2024/04/03 08:59:39;;;;;;;0.10;0.10;;;;;;;14.16;71.06;100339.50;5047989;28;20029;-80
2024/04/03 09:02:06;;;;;;;2.45;1.80;;;;;;;14.15;70.99;100338.63;5048125;28;20021;-80
2024/04/03 09:04:33;;;;;;;0.10;0.10;;;;;;;14.32;71.38;100340.56;5049932;28;20036;-81
2024/04/03 09:07:01;;;;;;;0.10;0.10;;;;;;;14.36;71.36;100335.97;5057055;28;20396;-79
2024/04/03 09:09:29;;;;;;;0.40;0.40;;;;;;;14.44;71.01;100331.16;5050377;28;20043;-81
2024/04/03 09:14:41;;;;;;;0.10;0.10;;;;;;;14.59;71.21;100334.94;5110825;27;20914;-80
2024/04/03 09:17:09;;;;;;;0.20;0.20;;;;;;;14.65;71.21;100333.84;5097773;28;20517;-79
2024/04/03 09:19:35;;;;;;;0.43;0.43;;;;;;;14.63;70.60;100341.00;5089854;28;20028;-81
2024/04/03 09:22:02;;;;;;;0.20;0.20;;;;;;;14.53;70.78;100333.44;5097662;28;20119;-80
2024/04/03 09:24:33;;;;;;;0.95;0.95;;;;;;;14.47;69.93;100336.38;5095832;28;20036;-80
2024/04/03 09:27:04;;;;;;;0.10;0.10;;;;;;;14.46;70.19;100337.28;5095582;28;20036;-80
2024/04/03 09:29:30;;;;;;;0.17;0.17;;;;;;;14.43;70.28;100334.78;5094041;28;20411;-79
2024/04/03 09:32:05;;;;;;;0.10;0.10;;;;;;;14.52;70.26;100336.16;5098813;28;20032;-79
2024/04/03 09:34:31;;;;;;;0.10;0.10;;;;;;;14.51;70.64;100335.28;5089590;28;20024;-77
2024/04/03 09:36:59;;;;;;;0.10;0.10;;;;;;;14.64;70.42;100332.94;5091326;28;20025;-80
2024/04/03 09:39:26;;;;;;;0.40;0.40;;;;;;;14.64;69.96;100324.94;5095983;28;20067;-81
2024/04/03 09:41:57;;;;;;;0.80;0.70;;;;;;;14.64;69.51;100321.41;5097682;28;20119;-79
2024/04/03 09:44:25;;;;;;;0.10;0.10;;;;;;;14.71;69.91;100330.91;5097020;28;20043;-80
2024/04/03 09:46:58;;;;;;;0.10;0.10;;;;;;;14.73;69.54;100329.03;5099267;28;20036;-80
2024/04/03 09:49:27;;;;;;;0.10;0.10;;;;;;;14.62;69.58;100334.81;5094325;28;20103;-79
2024/04/03 09:51:55;;;;;;;0.10;0.10;;;;;;;14.65;69.60;100334.69;5097923;28;20065;-79
2024/04/03 09:54:23;;;;;;;0.10;0.10;;;;;;;14.72;69.72;100340.63;5087012;28;20020;-80
2024/04/03 09:56:50;;;;;;;0.10;0.10;;;;;;;14.70;69.77;100339.81;5092911;28;20092;-79
2024/04/03 09:59:17;;;;;;;0.10;0.10;;;;;;;14.77;69.78;100338.63;5094699;28;20495;-79
2024/04/03 10:01:43;;;;;;;3.22;1.05;;;;;;;14.80;69.91;100342.94;5093729;28;20040;-81
2024/04/03 10:04:10;;;;;;;0.10;0.10;;;;;;;14.79;70.48;100336.75;5084373;28;20028;-78
2024/04/03 10:06:37;;;;;;;0.20;0.20;;;;;;;14.77;70.51;100335.94;5087605;28;20078;-79
2024/04/03 10:09:24;;;;;;;2.22;2.03;;;;;;;14.88;70.22;100330.13;5079471;28;20072;-79
2024/04/03 10:11:58;;;;;;;0.22;0.22;;;;;;;14.78;70.01;100340.34;5083599;28;20461;-79
2024/04/03 10:17:14;;;;;;;0.20;0.20;;;;;;;14.75;70.93;100329.81;5145749;27;20416;-82
2024/04/03 10:19:42;;;;;;;0.10;0.10;;;;;;;14.67;71.17;100326.66;5144927;27;20049;-80
2024/04/03 10:22:14;;;;;;;0.10;0.10;;;;;;;14.77;71.13;100333.28;5152863;27;20022;-79
2024/04/03 10:24:43;;;;;;;0.20;0.20;;;;;;;14.75;71.48;100328.94;5144935;27;20026;-81
2024/04/03 10:27:10;;;;;;;0.20;0.20;;;;;;;14.67;70.87;100326.66;5150278;27;20044;-82
2024/04/03 10:29:37;;;;;;;0.10;0.10;;;;;;;14.71;71.08;100333.56;5150697;27;20501;-82
2024/04/03 10:32:04;;;;;;;0.40;0.40;;;;;;;14.66;71.49;100327.56;5150745;27;20038;-82
2024/04/03 10:34:33;;;;;;;0.40;0.40;;;;;;;14.72;71.39;100325.47;5141229;27;20085;-82
2024/04/03 10:37:00;;;;;;;0.30;0.30;;;;;;;14.73;71.73;100326.38;5142059;27;20047;-78
2024/04/03 10:39:28;;;;;;;0.10;0.10;;;;;;;14.75;71.48;100321.81;5142280;27;20092;-80
2024/04/03 10:41:58;;;;;;;0.10;0.10;;;;;;;14.67;71.85;100321.31;5144409;27;20379;-80
2024/04/03 10:44:25;;;;;;;0.17;0.17;;;;;;;14.74;71.72;100322.75;5135817;27;20159;-81
2024/04/03 10:46:51;;;;;;;1.00;0.50;;;;;;;14.80;71.91;100324.28;5148922;27;20023;-80
2024/04/03 10:49:18;;;;;;;0.57;0.57;;;;;;;14.88;72.31;100320.31;5152380;27;20051;-81
2024/04/03 10:51:45;;;;;;;0.10;0.10;;;;;;;14.83;72.48;100319.66;5146583;27;20023;-81
2024/04/03 10:54:14;;;;;;;0.10;0.10;;;;;;;14.83;72.17;100333.00;5143038;27;20072;-82
2024/04/03 10:56:42;;;;;;;0.10;0.10;;;;;;;14.84;72.20;100321.41;5148542;27;20027;-81
2024/04/03 10:59:09;;;;;;;0.10;0.10;;;;;;;14.93;72.08;100308.56;5147176;27;20031;-81
2024/04/03 11:01:36;;;;;;;0.10;0.10;;;;;;;15.01;72.07;100309.06;5151961;27;20030;-80
2024/04/03 11:04:04;;;;;;;0.10;0.10;;;;;;;15.04;71.98;100319.59;5146086;27;20031;-81
2024/04/03 11:06:34;;;;;;;0.10;0.10;;;;;;;15.01;71.63;100309.94;5154849;27;20047;-78
2024/04/03 11:09:00;;;;;;;0.20;0.20;;;;;;;15.03;71.55;100317.88;5144722;27;20042;-80
2024/04/03 11:11:29;;;;;;;0.10;0.10;;;;;;;15.04;71.60;100308.91;5151583;27;20447;-81
2024/04/03 11:13:55;;;;;;;0.20;0.20;;;;;;;14.90;71.74;100316.72;5148959;27;20042;-81
2024/04/03 11:16:22;;;;;;;0.35;0.35;;;;;;;15.01;71.84;100309.94;5143145;27;20031;-81
2024/04/03 11:18:48;;;;;;;0.20;0.20;;;;;;;14.98;71.78;100312.75;5141432;27;20044;-81
2024/04/03 11:21:15;;;;;;;0.10;0.10;;;;;;;15.06;71.69;100315.06;5145177;27;20027;-80
2024/04/03 11:23:42;;;;;;;0.10;0.10;;;;;;;15.04;71.63;100316.91;5152414;27;20026;-77
2024/04/03 11:26:08;;;;;;;0.10;0.10;;;;;;;14.88;71.42;100325.66;5147270;27;20072;-78
2024/04/03 11:28:34;;;;;;;0.10;0.10;;;;;;;15.00;71.26;100318.00;5131259;27;20057;-80
2024/04/03 11:31:00;;;;;;;0.20;0.20;;;;;;;14.97;71.35;100319.03;5132100;27;20031;-79
2024/04/03 11:33:27;;;;;;;0.88;0.40;;;;;;;14.88;71.40;100322.13;5132094;27;20375;-81
2024/04/03 11:35:54;;;;;;;0.10;0.10;;;;;;;14.88;71.21;100320.31;5129171;27;20035;-79
2024/04/03 11:38:20;;;;;;;2.72;0.75;;;;;;;14.75;71.36;100319.13;5125202;27;20034;-81
2024/04/03 11:40:46;;;;;;;0.10;0.10;;;;;;;14.87;71.82;100331.06;5126472;27;20047;-82
2024/04/03 11:43:13;;;;;;;0.30;0.30;;;;;;;14.90;71.35;100319.38;5125958;27;20023;-80
2024/04/03 11:45:39;;;;;;;0.10;0.10;;;;;;;14.91;71.43;100321.97;5128936;27;20478;-81
2024/04/03 11:48:06;;;;;;;0.10;0.10;;;;;;;14.91;71.17;100321.97;5127309;27;20030;-80